Time;durP1;ratioP1;P1;durP2;ratioP2;P2;SDS_P1;SDS_P2;PMS_P1;PMS_P2;Temp;Humidity;BMP_temperature;BMP_pressure;BME280_temperature;BME280_humidity;BME280_pressure;Samples;Min_cycle;Max_cycle;Signal;HPM_P1;HPM_P2
2021/03/17 00:01:20;;;;;;;13.30;8.73;;;3.00;99.90;;;;;;5045474;28;20277;-80
2021/03/17 00:03:46;;;;;;;9.00;7.38;;;3.20;99.90;;;;;;5048269;28;20203;-79
2021/03/17 00:06:13;;;;;;;13.05;9.10;;;2.30;99.90;;;;;;5045877;28;20215;-78
2021/03/17 00:08:39;;;;;;;14.70;10.05;;;3.20;99.90;;;;;;5048099;28;20235;-79
2021/03/17 00:11:05;;;;;;;11.15;8.90;;;3.20;99.90;;;;;;5053370;28;20601;-79
2021/03/17 00:13:31;;;;;;;11.05;8.60;;;3.10;99.90;;;;;;5055927;28;20188;-80
2021/03/17 00:16:00;;;;;;;12.63;8.50;;;3.20;99.90;;;;;;5058013;28;20187;-79
2021/03/17 00:18:27;;;;;;;12.07;9.10;;;3.10;99.90;;;;;;5058901;28;20188;-80
2021/03/17 00:20:53;;;;;;;11.35;8.57;;;3.10;99.90;;;;;;5055494;28;20242;-79
2021/03/17 00:23:19;;;;;;;14.35;8.23;;;3.00;99.90;;;;;;5047742;28;20203;-79
2021/03/17 00:25:46;;;;;;;11.93;8.25;;;3.00;99.90;;;;;;5040503;28;20231;-79
2021/03/17 00:28:13;;;;;;;12.13;9.15;;;3.00;99.90;;;;;;5040160;28;20208;-80
2021/03/17 00:30:41;;;;;;;12.80;8.30;;;3.00;99.90;;;;;;5040910;28;20227;-80
2021/03/17 00:33:09;;;;;;;12.13;7.95;;;3.00;99.90;;;;;;5039002;28;20204;-80
2021/03/17 00:35:37;;;;;;;19.55;8.98;;;3.00;99.90;;;;;;5039453;28;20203;-81
2021/03/17 00:38:03;;;;;;;11.95;9.60;;;3.00;99.90;;;;;;5038456;28;20210;-80
2021/03/17 00:40:29;;;;;;;9.23;8.20;;;3.00;99.90;;;;;;5047378;28;20226;-78
2021/03/17 00:42:55;;;;;;;19.13;8.95;;;2.90;99.90;;;;;;5053193;28;20195;-80
2021/03/17 00:45:22;;;;;;;12.45;8.55;;;2.80;99.90;;;;;;5039658;28;20239;-80
2021/03/17 00:47:48;;;;;;;11.10;8.48;;;2.80;99.90;;;;;;5037242;28;20231;-78
2021/03/17 00:50:16;;;;;;;8.82;7.30;;;2.90;99.90;;;;;;5038706;28;20246;-79
2021/03/17 00:52:45;;;;;;;9.20;8.25;;;3.00;99.90;;;;;;5038506;28;20204;-79
2021/03/17 00:55:13;;;;;;;8.50;7.18;;;3.10;99.90;;;;;;5038676;28;20203;-79
2021/03/17 00:57:39;;;;;;;10.40;7.18;;;3.10;99.90;;;;;;5038141;28;20200;-80
2021/03/17 01:00:08;;;;;;;9.57;8.07;;;3.10;99.90;;;;;;5037081;28;20600;-80
2021/03/17 01:02:34;;;;;;;12.25;7.78;;;3.10;99.90;;;;;;5038333;28;20277;-80
2021/03/17 01:05:00;;;;;;;9.23;6.95;;;3.10;99.90;;;;;;5039071;28;20231;-79
2021/03/17 01:07:26;;;;;;;10.73;7.75;;;3.20;99.90;;;;;;5038358;28;20207;-80
2021/03/17 01:09:53;;;;;;;12.65;7.90;;;3.20;99.90;;;;;;5038495;28;20224;-80
2021/03/17 01:12:19;;;;;;;10.18;7.47;;;3.20;99.90;;;;;;5037072;28;20207;-80
2021/03/17 01:14:46;;;;;;;12.32;8.50;;;3.20;99.90;;;;;;5040866;28;20238;-81
2021/03/17 01:17:12;;;;;;;13.27;7.97;;;3.20;99.90;;;;;;5055704;28;20188;-80
2021/03/17 01:19:38;;;;;;;11.73;7.80;;;3.30;99.90;;;;;;5046898;28;20207;-80
2021/03/17 01:22:04;;;;;;;13.10;7.45;;;3.10;99.90;;;;;;5038328;28;20196;-81
2021/03/17 01:24:31;;;;;;;8.20;7.32;;;3.20;99.90;;;;;;5037207;28;20199;-80
2021/03/17 01:26:58;;;;;;;11.00;7.93;;;3.20;99.90;;;;;;5036918;28;20303;-80
2021/03/17 01:29:24;;;;;;;10.25;7.88;;;3.30;99.90;;;;;;5037604;28;20228;-80
2021/03/17 01:31:50;;;;;;;10.00;7.90;;;3.30;99.90;;;;;;5037400;28;20210;-79
2021/03/17 01:34:17;;;;;;;11.55;8.10;;;3.30;99.90;;;;;;5038168;28;20210;-79
2021/03/17 01:36:43;;;;;;;8.32;6.97;;;3.20;99.90;;;;;;5039433;28;20212;-80
2021/03/17 01:39:09;;;;;;;9.25;7.50;;;3.30;99.90;;;;;;5040095;28;20195;-80
2021/03/17 01:41:35;;;;;;;12.80;6.95;;;3.30;99.90;;;;;;5039979;28;20234;-81
2021/03/17 01:44:03;;;;;;;12.98;9.40;;;3.30;99.90;;;;;;5040202;28;20650;-79
2021/03/17 01:46:29;;;;;;;12.15;8.57;;;3.20;99.90;;;;;;5041209;28;20238;-80
2021/03/17 01:48:56;;;;;;;9.40;8.30;;;3.20;99.90;;;;;;5057403;28;20207;-79
2021/03/17 01:51:22;;;;;;;13.95;7.88;;;3.20;99.90;;;;;;5057634;28;20239;-80
2021/03/17 01:53:48;;;;;;;9.95;8.23;;;3.20;99.90;;;;;;5057895;28;20222;-80
2021/03/17 01:56:16;;;;;;;10.02;7.65;;;3.10;99.90;;;;;;5056830;28;20207;-80
2021/03/17 01:58:43;;;;;;;11.18;7.50;;;3.00;99.90;;;;;;5047140;28;20199;-80
2021/03/17 02:01:10;;;;;;;13.25;7.50;;;3.00;99.90;;;;;;5041097;28;20234;-83
2021/03/17 02:03:36;;;;;;;11.48;9.10;;;3.00;99.90;;;;;;5049959;28;20226;-80
2021/03/17 02:06:02;;;;;;;11.65;8.07;;;3.00;99.90;;;;;;5044116;28;20662;-81
2021/03/17 02:08:34;;;;;;;12.55;8.98;;;3.10;99.90;;;;;;5051794;28;20207;-81
2021/03/17 02:11:00;;;;;;;13.27;8.05;;;3.00;99.90;;;;;;5057548;28;20254;-80
2021/03/17 02:14:05;;;;;;;14.82;8.32;;;3.00;99.90;;;;;;5059133;28;20208;-80
2021/03/17 02:16:36;;;;;;;11.75;7.72;;;2.90;99.90;;;;;;4958140;29;20207;-80
2021/03/17 02:19:36;;;;;;;11.85;7.03;;;3.00;99.90;;;;;;5036400;28;20199;-79
2021/03/17 02:22:28;;;;;;;13.45;8.32;;;3.00;99.90;;;;;;5052348;28;20188;-79
2021/03/17 02:25:04;;;;;;;10.77;9.63;;;3.00;99.90;;;;;;5054210;28;20246;-79
2021/03/17 02:28:08;;;;;;;12.98;8.65;;;3.00;99.90;;;;;;5055032;28;20188;-79
2021/03/17 02:34:03;;;;;;;11.00;8.05;;;3.00;99.90;;;;;;5040354;28;20163;-80
2021/03/17 02:36:35;;;;;;;12.63;9.63;;;3.00;99.90;;;;;;5041429;28;20637;-79
2021/03/17 02:39:06;;;;;;;12.23;8.48;;;3.00;99.90;;;;;;5040942;28;20195;-80
2021/03/17 02:41:38;;;;;;;12.65;9.55;;;3.00;99.90;;;;;;5044026;28;20223;-79
2021/03/17 02:44:10;;;;;;;12.57;8.23;;;3.10;99.90;;;;;;5043703;28;20192;-81
2021/03/17 02:46:39;;;;;;;15.25;8.63;;;3.10;99.90;;;;;;5056877;28;20195;-80
2021/03/17 02:49:09;;;;;;;17.45;10.40;;;3.10;99.90;;;;;;5040118;28;20255;-80
2021/03/17 02:51:39;;;;;;;17.85;10.40;;;3.10;99.90;;;;;;5039630;28;20251;-79
2021/03/17 02:54:10;;;;;;;14.75;9.07;;;3.00;99.90;;;;;;5040499;28;20603;-80
2021/03/17 02:56:42;;;;;;;21.95;11.05;;;2.90;99.90;;;;;;5039292;28;20539;-80
2021/03/17 02:59:08;;;;;;;19.20;11.82;;;2.90;99.90;;;;;;5039795;28;20180;-80
2021/03/17 03:01:36;;;;;;;14.13;10.02;;;2.80;99.90;;;;;;5040474;28;20228;-80
2021/03/17 03:04:05;;;;;;;19.77;11.13;;;2.90;99.90;;;;;;5040169;28;20258;-79
2021/03/17 03:06:32;;;;;;;14.85;10.25;;;2.80;99.90;;;;;;5039210;28;20204;-80
2021/03/17 03:09:00;;;;;;;19.42;10.38;;;3.00;99.90;;;;;;5038884;28;20223;-80
2021/03/17 03:11:27;;;;;;;17.15;10.40;;;3.00;99.90;;;;;;5038858;28;20220;-80
2021/03/17 03:13:53;;;;;;;15.63;9.88;;;3.00;99.90;;;;;;5039331;28;20216;-80
2021/03/17 03:16:19;;;;;;;13.93;9.38;;;3.10;99.90;;;;;;5039523;28;20199;-81
2021/03/17 03:18:48;;;;;;;14.13;9.73;;;3.00;99.90;;;;;;5039111;28;20704;-80
2021/03/17 03:21:16;;;;;;;16.63;10.30;;;2.90;99.90;;;;;;5038359;28;20753;-79
2021/03/17 03:23:45;;;;;;;16.20;11.30;;;2.90;99.90;;;;;;5038561;28;20587;-79
2021/03/17 03:26:11;;;;;;;18.58;11.45;;;2.90;99.90;;;;;;5039452;28;20203;-80
2021/03/17 03:28:38;;;;;;;13.32;10.68;;;2.80;99.90;;;;;;5043414;28;20586;-78
2021/03/17 03:31:07;;;;;;;18.98;10.57;;;2.80;99.90;;;;;;5040387;28;20293;-79
2021/03/17 03:33:33;;;;;;;17.05;8.77;;;2.90;99.90;;;;;;5039251;28;20240;-80
2021/03/17 03:35:59;;;;;;;14.55;10.95;;;3.00;99.90;;;;;;5039667;28;20207;-79
2021/03/17 03:38:26;;;;;;;17.13;11.32;;;3.00;99.90;;;;;;5039712;28;20216;-81
2021/03/17 03:40:53;;;;;;;17.45;11.20;;;2.90;99.90;;;;;;5038855;28;20441;-80
2021/03/17 03:43:20;;;;;;;18.75;12.07;;;2.80;99.90;;;;;;5038632;28;20487;-79
2021/03/17 03:45:46;;;;;;;16.92;10.82;;;2.80;99.90;;;;;;5039567;28;20203;-80
2021/03/17 03:48:12;;;;;;;13.13;10.43;;;2.80;99.90;;;;;;5039312;28;20195;-80
2021/03/17 03:50:42;;;;;;;18.85;10.70;;;3.00;99.90;;;;;;5038929;28;20236;-80
2021/03/17 03:53:17;;;;;;;15.70;11.00;;;2.90;99.90;;;;;;5039551;28;20207;-80
2021/03/17 03:55:54;;;;;;;16.60;11.20;;;2.90;99.90;;;;;;5039028;28;20272;-81
2021/03/17 03:58:28;;;;;;;15.43;11.10;;;2.70;99.90;;;;;;5038959;28;20227;-80
2021/03/17 04:00:59;;;;;;;18.50;11.75;;;2.70;99.90;;;;;;5044219;28;20223;-79
2021/03/17 04:03:26;;;;;;;17.80;11.68;;;2.60;99.90;;;;;;5048505;28;20192;-80
2021/03/17 04:05:53;;;;;;;17.55;11.13;;;2.60;99.90;;;;;;5053607;28;20199;-78
2021/03/17 04:08:22;;;;;;;20.55;12.55;;;2.60;99.90;;;;;;5054265;28;20255;-79
2021/03/17 04:10:54;;;;;;;15.02;11.40;;;2.70;99.90;;;;;;5053193;28;20297;-78
2021/03/17 04:13:22;;;;;;;25.25;12.43;;;2.80;99.90;;;;;;5053066;28;20218;-79
2021/03/17 04:15:50;;;;;;;19.33;11.70;;;2.50;99.90;;;;;;5053300;28;20570;-80
2021/03/17 04:18:18;;;;;;;22.00;12.18;;;2.60;99.90;;;;;;5051863;28;20267;-78
2021/03/17 04:20:47;;;;;;;23.85;14.38;;;2.40;99.90;;;;;;5049448;28;20429;-78
2021/03/17 04:23:15;;;;;;;19.27;11.90;;;2.50;99.90;;;;;;5050092;28;20214;-79
2021/03/17 04:25:44;;;;;;;20.02;13.45;;;0.80;99.90;;;;;;5042476;28;20204;-78
2021/03/17 04:28:14;;;;;;;18.05;11.88;;;2.30;99.90;;;;;;5039333;28;20207;-80
2021/03/17 04:30:42;;;;;;;14.07;11.98;;;2.40;99.90;;;;;;5039398;28;20223;-79
2021/03/17 04:33:08;;;;;;;18.48;11.55;;;2.50;99.90;;;;;;5038686;28;20208;-78
2021/03/17 04:35:34;;;;;;;17.88;13.05;;;2.60;99.90;;;;;;5038708;28;20219;-78
2021/03/17 04:38:01;;;;;;;15.63;11.45;;;2.50;99.90;;;;;;5057141;28;20192;-77
2021/03/17 04:40:28;;;;;;;22.45;12.45;;;2.40;99.90;;;;;;5053575;28;20223;-77
2021/03/17 04:42:56;;;;;;;20.88;12.48;;;2.30;99.90;;;;;;5053942;28;20207;-79
2021/03/17 04:45:24;;;;;;;15.85;9.80;;;2.30;99.90;;;;;;5050818;28;20203;-80
2021/03/17 04:47:53;;;;;;;18.20;12.00;;;2.40;99.90;;;;;;5047590;28;20204;-80
2021/03/17 04:50:20;;;;;;;22.88;12.40;;;2.20;99.90;;;;;;5046450;28;20254;-80
2021/03/17 04:52:46;;;;;;;18.35;13.18;;;2.10;99.90;;;;;;5046625;28;20518;-80
2021/03/17 04:55:14;;;;;;;21.42;12.63;;;2.10;99.90;;;;;;5046454;28;20441;-79
2021/03/17 04:57:43;;;;;;;25.08;13.60;;;2.10;99.90;;;;;;5045917;28;20199;-78
2021/03/17 05:00:12;;;;;;;19.55;13.52;;;1.80;99.90;;;;;;5045806;28;20553;-81
2021/03/17 05:02:43;;;;;;;27.92;14.25;;;2.00;99.90;;;;;;5047179;28;20214;-79
2021/03/17 05:05:10;;;;;;;21.83;13.10;;;2.10;99.90;;;;;;5050949;28;20449;-80
2021/03/17 05:07:39;;;;;;;21.25;13.98;;;2.00;99.90;;;;;;5052793;28;20204;-82
2021/03/17 05:10:07;;;;;;;23.95;13.02;;;2.00;99.90;;;;;;5050737;28;20228;-80
2021/03/17 05:12:33;;;;;;;19.50;13.23;;;2.30;99.90;;;;;;5043413;28;20626;-80
2021/03/17 05:15:00;;;;;;;23.13;13.23;;;2.10;99.90;;;;;;5042428;28;20207;-80
2021/03/17 05:17:27;;;;;;;19.17;13.00;;;2.00;99.90;;;;;;5051504;28;20203;-80
2021/03/17 05:22:43;;;;;;;19.50;13.30;;;2.30;99.90;;;;;;5056681;28;20207;-89
2021/03/17 05:25:12;;;;;;;23.23;13.35;;;2.20;99.90;;;;;;5057899;28;20195;-88
2021/03/17 05:27:44;;;;;;;24.63;12.82;;;2.20;99.90;;;;;;5054455;28;20258;-88
2021/03/17 05:30:14;;;;;;;25.20;13.90;;;2.20;99.90;;;;;;5052280;28;20263;-88
2021/03/17 05:32:49;;;;;;;17.90;10.68;;;2.30;99.90;;;;;;5050963;28;20211;-88
2021/03/17 05:35:16;;;;;;;28.10;10.85;;;;;;;;;;5050273;28;20231;-88
2021/03/17 05:37:45;;;;;;;24.10;13.52;;;2.20;99.90;;;;;;5048551;28;20211;-88
2021/03/17 05:40:14;;;;;;;25.58;13.73;;;1.90;99.90;;;;;;5047864;28;20199;-88
2021/03/17 05:42:43;;;;;;;19.90;12.18;;;2.10;99.90;;;;;;5042440;28;20223;-88
2021/03/17 05:45:13;;;;;;;25.88;13.40;;;2.10;99.90;;;;;;5039664;28;20208;-88
2021/03/17 05:47:48;;;;;;;18.55;12.35;;;2.20;99.90;;;;;;5040504;28;20204;-88
2021/03/17 05:50:17;;;;;;;18.38;12.65;;;2.10;99.90;;;;;;5041393;28;20226;-88
2021/03/17 05:52:44;;;;;;;15.57;11.00;;;1.70;99.90;;;;;;5044589;28;20226;-88
2021/03/17 05:55:13;;;;;;;21.80;11.77;;;2.20;99.90;;;;;;5047291;28;20294;-87
2021/03/17 05:57:41;;;;;;;24.33;13.65;;;0.60;99.90;;;;;;5048848;28;20275;-88
2021/03/17 06:00:10;;;;;;;17.25;11.00;;;2.50;99.90;;;;;;5051588;28;20196;-88
2021/03/17 06:02:37;;;;;;;18.55;11.98;;;2.20;99.90;;;;;;5050750;28;20207;-88
2021/03/17 06:05:06;;;;;;;24.45;13.40;;;2.20;99.90;;;;;;5056798;28;20184;-87
2021/03/17 06:07:42;;;;;;;15.55;11.48;;;2.00;99.90;;;;;;5046081;28;20263;-87
2021/03/17 06:10:13;;;;;;;16.85;10.18;;;2.10;99.90;;;;;;5042789;28;20208;-88
2021/03/17 06:12:41;;;;;;;23.38;12.77;;;;;;;;;;5052517;28;20188;-87
2021/03/17 06:15:08;;;;;;;22.27;12.60;;;2.20;99.90;;;;;;5050503;28;20204;-87
2021/03/17 06:17:36;;;;;;;18.77;11.48;;;2.10;99.90;;;;;;5039445;28;20729;-88
2021/03/17 06:20:25;;;;;;;18.77;12.95;;;1.90;99.90;;;;;;5040568;28;20610;-88
2021/03/17 06:22:52;;;;;;;18.70;13.10;;;;;;;;;;5042158;28;20187;-87
2021/03/17 06:25:24;;;;;;;17.60;11.55;;;1.80;99.90;;;;;;5049842;28;20208;-87
2021/03/17 06:27:51;;;;;;;22.30;11.48;;;2.00;99.90;;;;;;5048815;28;20200;-87
2021/03/17 06:30:18;;;;;;;19.77;12.80;;;2.10;99.90;;;;;;5046893;28;20227;-88
2021/03/17 06:32:45;;;;;;;23.17;12.80;;;;;;;;;;5040363;28;20208;-88
2021/03/17 06:35:20;;;;;;;19.05;12.30;;;2.20;99.90;;;;;;5039705;28;20204;-88
2021/03/17 06:37:47;;;;;;;20.63;12.45;;;;;;;;;;5038605;28;20647;-88
2021/03/17 06:40:27;;;;;;;20.45;11.95;;;2.10;99.90;;;;;;5038019;28;20635;-88
2021/03/17 06:42:58;;;;;;;21.52;13.00;;;2.30;99.90;;;;;;5039613;28;20196;-88
2021/03/17 06:45:49;;;;;;;17.92;12.77;;;2.30;99.90;;;;;;5051252;28;20202;-89
2021/03/17 06:48:35;;;;;;;26.83;14.02;;;2.40;99.90;;;;;;5024214;28;20204;-88
2021/03/17 06:51:04;;;;;;;30.00;13.88;;;2.20;99.90;;;;;;5054960;28;20216;-87
2021/03/17 06:53:43;;;;;;;27.92;16.08;;;2.60;99.90;;;;;;5055925;28;20203;-89
2021/03/17 06:56:26;;;;;;;33.90;17.42;;;2.50;99.90;;;;;;5058507;28;20188;-88
2021/03/17 06:58:54;;;;;;;21.95;15.93;;;2.50;99.90;;;;;;5058277;28;20220;-88
2021/03/17 07:01:33;;;;;;;28.88;16.27;;;2.50;99.90;;;;;;5059041;28;20220;-88
2021/03/17 07:04:08;;;;;;;32.20;16.50;;;2.90;99.90;;;;;;5059045;28;20271;-88
2021/03/17 07:06:55;;;;;;;33.67;17.92;;;2.40;99.90;;;;;;5053659;28;20233;-88
2021/03/17 07:09:30;;;;;;;35.50;17.73;;;2.40;99.90;;;;;;5049269;28;20282;-88
2021/03/17 07:12:13;;;;;;;28.90;16.70;;;2.80;99.90;;;;;;5045443;28;20230;-88
2021/03/17 07:14:52;;;;;;;25.17;15.55;;;2.80;99.90;;;;;;5044324;28;20594;-89
2021/03/17 07:17:27;;;;;;;31.35;16.10;;;2.70;99.90;;;;;;5044060;28;20584;-88
2021/03/17 07:19:57;;;;;;;27.90;14.95;;;2.70;99.90;;;;;;5045422;28;20270;-90
2021/03/17 07:22:33;;;;;;;19.75;15.13;;;3.10;99.90;;;;;;5065314;28;20218;-88
2021/03/17 07:25:05;;;;;;;20.95;14.52;;;2.80;99.90;;;;;;5067760;28;20198;-88
2021/03/17 07:27:40;;;;;;;31.70;16.70;;;2.60;99.90;;;;;;5067481;28;20668;-88
2021/03/17 07:30:16;;;;;;;27.83;16.23;;;2.80;99.90;;;;;;5065270;28;20729;-88
2021/03/17 07:32:56;;;;;;;31.35;15.40;;;2.50;99.90;;;;;;5069917;28;20199;-88
2021/03/17 07:35:31;;;;;;;28.10;17.17;;;2.70;99.90;;;;;;5075853;28;20210;-87
2021/03/17 07:38:06;;;;;;;28.73;15.40;;;3.10;99.90;;;;;;5072659;28;20199;-88
2021/03/17 07:40:46;;;;;;;30.92;18.75;;;3.20;99.90;;;;;;5071886;28;20257;-88
2021/03/17 07:43:31;;;;;;;31.05;17.50;;;3.10;99.90;;;;;;5075149;28;20218;-88
2021/03/17 07:53:18;;;;;;;22.17;13.68;;;3.60;99.90;;;;;;4945478;29;20223;-88
2021/03/17 08:07:32;;;;;;;27.13;14.18;;;3.40;99.90;;;;;;5119492;23;20234;-88
2021/03/17 08:18:02;;;;;;;;;;;;;;;;;;;;;
2021/03/17 08:20:38;;;;;;;22.38;14.15;;;3.50;99.90;;;;;;5082770;22;20223;-87
2021/03/17 08:23:48;;;;;;;28.48;15.02;;;3.60;99.90;;;;;;5042679;28;20203;-87
2021/03/17 08:26:47;;;;;;;20.55;14.45;;;3.60;99.90;;;;;;5041384;28;20238;-88
2021/03/17 08:29:15;;;;;;;30.13;16.20;;;3.70;99.90;;;;;;5041346;28;20208;-88
2021/03/17 08:32:13;;;;;;;18.83;13.88;;;3.80;99.90;;;;;;5044588;28;20306;-87
2021/03/17 08:34:44;;;;;;;25.63;13.80;;;3.60;99.90;;;;;;5004701;28;20254;-88
2021/03/17 08:37:14;;;;;;;21.67;12.98;;;3.70;99.90;;;;;;5042084;28;20211;-88
2021/03/17 08:40:19;;;;;;;21.45;13.63;;;2.60;99.90;;;;;;5042406;28;20204;-88
2021/03/17 08:43:02;;;;;;;21.77;13.30;;;3.80;99.90;;;;;;5043317;28;20207;-88
2021/03/17 08:49:03;;;;;;;25.83;13.88;;;3.80;99.90;;;;;;5038604;28;20192;-87
2021/03/17 08:52:00;;;;;;;19.02;12.18;;;3.80;99.90;;;;;;5036284;28;20231;-87
2021/03/17 08:55:24;;;;;;;22.55;12.82;;;3.90;99.90;;;;;;4962647;28;20230;-87
2021/03/17 08:58:40;;;;;;;21.05;13.27;;;3.90;99.90;;;;;;4962900;29;20216;-89
2021/03/17 09:01:32;;;;;;;18.17;12.07;;;4.10;99.90;;;;;;4893973;29;20225;-88
2021/03/17 09:04:43;;;;;;;22.13;13.75;;;4.40;99.90;;;;;;4897516;29;20235;-88
2021/03/17 09:07:42;;;;;;;21.58;12.68;;;4.30;99.90;;;;;;4971939;29;20217;-87
2021/03/17 09:10:39;;;;;;;23.58;13.68;;;3.90;99.90;;;;;;5053386;28;20228;-88
2021/03/17 09:13:38;;;;;;;23.55;12.48;;;3.60;99.90;;;;;;5047755;28;20295;-87
2021/03/17 09:19:20;;;;;;;23.00;12.98;;;3.90;99.90;;;;;;4939659;29;20195;-89
2021/03/17 09:21:47;;;;;;;18.60;10.40;;;4.00;99.90;;;;;;4979114;28;20449;-87
2021/03/17 09:24:49;;;;;;;22.50;13.25;;;3.80;99.90;;;;;;5042720;28;20204;-88
2021/03/17 09:30:06;;;;;;;21.63;14.45;;;3.80;99.90;;;;;;5006429;28;20258;-88
2021/03/17 09:32:37;;;;;;;28.77;14.15;;;3.90;99.90;;;;;;5043549;28;20703;-87
2021/03/17 09:35:21;;;;;;;23.35;12.68;;;4.00;99.90;;;;;;5045944;28;20192;-87
2021/03/17 09:37:52;;;;;;;19.67;12.63;;;;;;;;;;5000568;28;20204;-88
2021/03/17 09:40:26;;;;;;;21.05;12.50;;;4.10;99.90;;;;;;5041636;28;20235;-88
2021/03/17 09:42:53;;;;;;;25.08;12.55;;;;;;;;;;5050418;28;20183;-88
2021/03/17 09:45:25;;;;;;;23.42;11.73;;;4.40;99.90;;;;;;5045141;28;20287;-88
2021/03/17 09:47:59;;;;;;;22.08;13.05;;;4.40;99.90;;;;;;5042338;28;20204;-88
2021/03/17 09:50:27;;;;;;;17.63;11.25;;;4.40;99.90;;;;;;5047351;28;20227;-89
2021/03/17 09:52:54;;;;;;;22.83;14.25;;;;;;;;;;5047447;28;20223;-87
2021/03/17 09:55:31;;;;;;;20.38;14.02;;;4.20;99.90;;;;;;5041392;28;20202;-88
2021/03/17 09:58:07;;;;;;;18.25;13.20;;;4.40;99.90;;;;;;5041228;28;20234;-87
2021/03/17 10:00:37;;;;;;;23.67;14.15;;;4.40;99.90;;;;;;5042382;28;20310;-87
2021/03/17 10:03:11;;;;;;;23.40;13.50;;;4.50;99.90;;;;;;5049880;28;20215;-90
2021/03/17 10:05:38;;;;;;;19.08;12.05;;;4.70;99.90;;;;;;5046024;28;20623;-89
2021/03/17 10:08:04;;;;;;;19.08;12.82;;;4.70;99.90;;;;;;5045475;28;20204;-86
2021/03/17 10:10:31;;;;;;;18.77;12.27;;;4.90;99.90;;;;;;5040737;28;20231;-88
2021/03/17 10:12:57;;;;;;;20.48;14.20;;;;;;;;;;5039766;28;20227;-85
2021/03/17 10:15:27;;;;;;;21.52;14.40;;;4.60;99.90;;;;;;5042805;28;20215;-89
2021/03/17 10:17:57;;;;;;;22.55;13.50;;;4.80;99.90;;;;;;5041375;28;20207;-88
2021/03/17 10:20:26;;;;;;;20.77;13.55;;;5.10;99.90;;;;;;5038886;28;20233;-88
2021/03/17 10:22:56;;;;;;;19.08;11.10;;;5.10;99.90;;;;;;5041527;28;20298;-90
2021/03/17 10:25:26;;;;;;;21.88;12.05;;;5.10;99.90;;;;;;5039253;28;20203;-87
2021/03/17 10:27:58;;;;;;;13.30;10.18;;;4.90;99.90;;;;;;5040068;28;20184;-88
2021/03/17 10:30:29;;;;;;;18.33;10.93;;;5.10;99.90;;;;;;5041838;28;20227;-88
2021/03/17 10:33:00;;;;;;;21.27;10.95;;;5.30;99.90;;;;;;5042102;28;20212;-88
2021/03/17 10:35:31;;;;;;;13.38;9.68;;;5.10;99.90;;;;;;5042503;28;20206;-87
2021/03/17 10:38:04;;;;;;;15.80;10.70;;;;;;;;;;5047022;28;20206;-89
2021/03/17 10:40:31;;;;;;;15.20;8.77;;;5.10;99.90;;;;;;5049563;28;20224;-89
2021/03/17 10:42:59;;;;;;;16.85;9.52;;;5.30;99.90;;;;;;5054822;28;20196;-87
2021/03/17 10:45:33;;;;;;;11.50;6.90;;;5.10;99.90;;;;;;5056209;28;20196;-88
2021/03/17 10:48:29;;;;;;;;;;;;;;;;;;;;;
2021/03/17 10:50:58;;;;;;;11.18;8.45;;;4.00;99.90;;;;;;5058669;28;20241;-89
2021/03/17 10:53:26;;;;;;;11.70;8.82;;;5.60;99.90;;;;;;5054625;28;20218;-87
2021/03/17 10:55:53;;;;;;;16.98;9.77;;;5.40;99.90;;;;;;5057833;28;20200;-87
2021/03/17 10:58:21;;;;;;;16.55;10.27;;;5.30;99.90;;;;;;5052187;28;20203;-88
2021/03/17 11:00:49;;;;;;;16.23;10.65;;;5.50;99.90;;;;;;5050601;28;20219;-86
2021/03/17 11:03:24;;;;;;;15.45;9.38;;;5.70;99.90;;;;;;5048035;28;20215;-87
2021/03/17 11:06:10;;;;;;;16.40;9.30;;;6.00;99.90;;;;;;5048350;28;20207;-90
2021/03/17 11:08:36;;;;;;;10.50;8.25;;;;;;;;;;5049019;28;20203;-88
2021/03/17 11:11:05;;;;;;;12.18;8.05;;;5.80;99.90;;;;;;5049614;28;20297;-87
2021/03/17 11:13:32;;;;;;;11.13;7.45;;;;;;;;;;5046364;28;20188;-89
2021/03/17 11:16:01;;;;;;;8.90;6.55;;;5.30;99.90;;;;;;5047837;28;20231;-86
2021/03/17 11:18:30;;;;;;;11.15;7.07;;;5.10;99.90;;;;;;5043977;28;20210;-87
2021/03/17 11:20:59;;;;;;;7.70;6.80;;;4.60;99.90;;;;;;5043778;28;20235;-86
2021/03/17 11:23:27;;;;;;;8.40;6.75;;;4.50;99.90;;;;;;5048326;28;20188;-89
2021/03/17 11:25:56;;;;;;;6.30;5.35;;;4.30;99.90;;;;;;5048001;28;20211;-87
2021/03/17 11:28:26;;;;;;;8.43;6.18;;;4.30;99.90;;;;;;5047468;28;20212;-86
2021/03/17 11:30:57;;;;;;;11.25;6.68;;;4.10;99.90;;;;;;5044164;28;20259;-87
2021/03/17 11:33:24;;;;;;;10.00;6.07;;;;;;;;;;5042138;28;20203;-88
2021/03/17 11:35:53;;;;;;;13.07;8.15;;;4.40;99.90;;;;;;5043250;28;20207;-86
2021/03/17 11:38:29;;;;;;;11.68;8.00;;;4.60;99.90;;;;;;5043747;28;20207;-87
2021/03/17 11:40:58;;;;;;;15.98;9.30;;;4.70;99.90;;;;;;5039941;28;20245;-87
2021/03/17 11:43:26;;;;;;;15.68;9.80;;;4.70;99.90;;;;;;5040187;28;20192;-87
2021/03/17 11:45:54;;;;;;;14.85;9.98;;;4.70;99.90;;;;;;5043719;28;20563;-86
2021/03/17 11:48:24;;;;;;;12.98;8.55;;;4.80;99.90;;;;;;5043374;28;20234;-87
2021/03/17 11:50:53;;;;;;;22.92;11.13;;;4.90;99.90;;;;;;5042377;28;20265;-87
2021/03/17 11:53:21;;;;;;;13.63;8.63;;;4.80;99.90;;;;;;5043257;28;20204;-88
2021/03/17 11:55:48;;;;;;;15.32;10.27;;;;;;;;;;5042364;28;20214;-87
2021/03/17 11:58:17;;;;;;;18.83;9.45;;;5.10;99.90;;;;;;5041958;28;20215;-88
2021/03/17 12:00:44;;;;;;;17.65;10.45;;;4.10;99.90;;;;;;5042969;28;20303;-86
2021/03/17 12:03:12;;;;;;;12.65;8.73;;;5.00;99.90;;;;;;5046898;28;20207;-87
2021/03/17 12:05:40;;;;;;;13.23;7.35;;;4.70;99.90;;;;;;5044978;28;20187;-87
2021/03/17 12:08:13;;;;;;;15.35;7.43;;;4.90;99.90;;;;;;5044151;28;20572;-87
2021/03/17 12:10:39;;;;;;;12.30;6.60;;;;;;;;;;5040572;28;20228;-87
2021/03/17 12:13:06;;;;;;;12.95;7.38;;;5.00;99.90;;;;;;5039764;28;20624;-88
2021/03/17 12:15:33;;;;;;;10.10;6.88;;;;;;;;;;5041669;28;20199;-87
2021/03/17 12:18:00;;;;;;;9.68;7.40;;;5.00;99.90;;;;;;5038875;28;20211;-87
2021/03/17 12:20:29;;;;;;;11.73;6.45;;;4.90;99.90;;;;;;5039266;28;20235;-86
2021/03/17 12:22:56;;;;;;;10.65;6.78;;;;;;;;;;5040264;28;20243;-87
2021/03/17 12:25:23;;;;;;;9.02;7.47;;;5.00;99.90;;;;;;5042041;28;20208;-86
2021/03/17 12:27:50;;;;;;;12.27;7.43;;;5.20;99.90;;;;;;5042726;28;20702;-87
2021/03/17 12:30:20;;;;;;;7.55;6.18;;;5.00;99.90;;;;;;5040860;28;20227;-87
2021/03/17 12:32:47;;;;;;;10.23;7.90;;;;;;;;;;5041542;28;20257;-87
2021/03/17 12:35:16;;;;;;;10.75;7.80;;;4.50;99.90;;;;;;5042054;28;20211;-87
2021/03/17 12:37:44;;;;;;;9.75;7.53;;;5.30;99.90;;;;;;5047134;28;20203;-87
2021/03/17 12:40:16;;;;;;;12.82;7.72;;;5.30;99.90;;;;;;5053900;28;20204;-87
2021/03/17 12:42:53;;;;;;;12.93;8.57;;;5.50;99.90;;;;;;5046254;28;20214;-89
2021/03/17 12:45:22;;;;;;;11.93;7.35;;;5.40;99.90;;;;;;5042942;28;20198;-81
2021/03/17 12:48:22;;;;;;;8.88;6.10;;;5.20;99.90;;;;;;5042092;28;20203;-87
2021/03/17 12:50:49;;;;;;;10.30;7.00;;;;;;;;;;5047127;28;20259;-87
2021/03/17 12:53:16;;;;;;;7.18;6.00;;;;;;;;;;5040258;28;20196;-87
2021/03/17 12:55:43;;;;;;;9.65;7.30;;;;;;;;;;5048034;28;20204;-87
2021/03/17 12:58:12;;;;;;;7.60;6.13;;;4.90;99.90;;;;;;5056389;28;20272;-87
2021/03/17 13:00:38;;;;;;;10.15;6.53;;;4.90;99.90;;;;;;5057994;28;20203;-86
2021/03/17 13:03:05;;;;;;;10.05;7.20;;;4.50;99.90;;;;;;5057900;28;20204;-86
2021/03/17 13:05:34;;;;;;;8.82;6.10;;;4.40;99.90;;;;;;5057876;28;20199;-87
2021/03/17 13:08:01;;;;;;;11.82;7.65;;;;;;;;;;5058496;28;20203;-87
2021/03/17 13:10:27;;;;;;;12.10;8.13;;;4.60;99.90;;;;;;5058704;28;20228;-88
2021/03/17 13:12:54;;;;;;;11.05;7.88;;;;;;;;;;5058722;28;20203;-87
2021/03/17 13:15:29;;;;;;;11.20;7.50;;;4.70;99.90;;;;;;5058417;28;20247;-87
2021/03/17 13:17:57;;;;;;;10.57;7.60;;;4.50;99.90;;;;;;5058110;28;20259;-88
2021/03/17 13:20:25;;;;;;;14.38;7.80;;;5.20;99.90;;;;;;5057421;28;20283;-88
2021/03/17 13:22:55;;;;;;;11.93;8.23;;;5.40;99.90;;;;;;5056351;28;20280;-88
2021/03/17 13:28:36;;;;;;;11.20;8.20;;;5.40;99.90;;;;;;5052730;28;20271;-88
2021/03/17 13:31:09;;;;;;;10.70;7.60;;;5.60;99.90;;;;;;5056718;28;20251;-88
2021/03/17 13:33:36;;;;;;;5.05;3.70;;;;;;;;;;5049617;28;20242;-87
2021/03/17 13:36:09;;;;;;;3.97;3.50;;;;;;;;;;5043921;28;20603;-86
2021/03/17 13:38:36;;;;;;;3.65;3.22;;;3.90;99.90;;;;;;5045435;28;20216;-88
2021/03/17 13:41:03;;;;;;;2.33;2.13;;;;;;;;;;5051822;28;20227;-86
2021/03/17 13:43:30;;;;;;;2.88;2.53;;;;;;;;;;5054127;28;20184;-87
2021/03/17 13:45:57;;;;;;;2.88;2.45;;;;;;;;;;5055221;28;20194;-86
2021/03/17 13:48:42;;;;;;;3.65;2.55;;;3.10;99.90;;;;;;5056388;28;20194;-86
2021/03/17 13:51:10;;;;;;;3.42;3.00;;;2.50;99.90;;;;;;5056838;28;20651;-86
2021/03/17 13:53:40;;;;;;;4.07;3.03;;;;;;;;;;5056117;28;20227;-87
2021/03/17 13:56:07;;;;;;;5.60;2.30;;;2.40;99.90;;;;;;5056816;28;20186;-87
2021/03/17 13:58:35;;;;;;;3.95;2.58;;;;;;;;;;5054666;28;20204;-88
2021/03/17 14:01:01;;;;;;;2.80;2.30;;;;;;;;;;5053441;28;20220;-87